Terminal Aerodrome Forecast
Issued by NWS Cleveland, OH

Home | Current Version | Previous Version | Graphics & Text | Print | Product List | Glossary On
Versions: 1 2 3 4 5 6 7 8 9 10 11 12 13 14 15 16 17 18 19 20 21 22 23 24 25 26 27 28 29 30 31 32 33 34 35 36 37
000
FTUS41 KCLE 202100 AAA
TAFYNG
TAF AMD
KYNG 202117Z 2021/2118 25006KT P6SM BKN035
      TEMPO 2021/2023 3SM TSRA OVC025CB
     FM210000 24005KT P6SM SCT035 BKN250
     FM210900 24003KT 4SM BR VCSH SCT008 BKN045
      TEMPO 2109/2113 3SM BR BKN008
     FM211400 24006KT P6SM VCSH BKN035
      TEMPO 2114/2118 5SM TSRA BR BKN025CB=

USA.gov is the U.S. government's official web portal to all federal, state and local government web resources and services.